Time;durP1;ratioP1;P1;durP2;ratioP2;P2;SDS_P1;SDS_P2;PMS_P1;PMS_P2;Temp;Humidity;BMP_temperature;BMP_pressure;BME280_temperature;BME280_humidity;BME280_pressure;Samples;Min_cycle;Max_cycle;Signal;HPM_P1;HPM_P2
2022/05/03 00:00:25;;;;;;;;;;;;;;;18.09;67.69;100851.28;7398607;19;1874;-38
2022/05/03 00:03:04;;;;;;;;;;;;;;;18.07;67.50;100852.38;7399931;19;1376;-38
2022/05/03 00:05:44;;;;;;;;;;;;;;;18.06;67.51;100840.84;7399908;19;1909;-38
2022/05/03 00:08:20;;;;;;;;;;;;;;;18.06;67.81;100843.53;7399093;19;1756;-38
2022/05/03 00:10:55;;;;;;;;;;;;;;;18.08;67.95;100841.56;7397903;19;1867;-37
2022/05/03 00:13:29;;;;;;;;;;;;;;;18.06;67.90;100843.53;7399667;19;1880;-38
2022/05/03 00:15:59;;;;;;;;;;;;;;;18.07;67.84;100839.00;7405401;19;1636;-38
2022/05/03 00:18:33;;;;;;;;;;;;;;;18.10;67.38;100844.09;7408879;19;1983;-38
2022/05/03 00:23:49;;;;;;;;;;;;;;;18.08;67.63;100854.94;7404964;19;2372;-38
2022/05/03 00:26:19;;;;;;;;;;;;;;;18.11;67.92;100855.66;7406910;19;1673;-37
2022/05/03 00:28:56;;;;;;;;;;;;;;;18.07;67.79;100849.72;7405521;19;1811;-38
2022/05/03 00:31:28;;;;;;;;;;;;;;;18.07;67.41;100833.66;7404801;19;1845;-38
2022/05/03 00:33:57;;;;;;;;;;;;;;;18.05;67.23;100840.97;7404640;19;1896;-38
2022/05/03 00:36:42;;;;;;;;;;;;;;;18.06;67.73;100845.31;7407762;19;1833;-38
2022/05/03 00:39:14;;;;;;;;;;;;;;;18.06;67.42;100845.31;7406643;19;1780;-37
2022/05/03 00:41:50;;;;;;;;;;;;;;;18.03;67.97;100837.56;7407318;19;1875;-38
2022/05/03 00:47:15;;;;;;;;;;;;;;;18.05;67.48;100852.50;7407868;19;1708;-38
2022/05/03 00:49:53;;;;;;;;;;;;;;;18.00;67.44;100838.66;7406385;19;1864;-38
2022/05/03 00:52:26;;;;;;;;;;;;;;;18.01;67.45;100842.19;7406903;19;1607;-38
2022/05/03 00:55:11;;;;;;;;;;;;;;;18.03;67.75;100845.59;7407222;19;1782;-38
2022/05/03 00:57:52;;;;;;;;;;;;;;;18.06;67.38;100845.31;7406515;19;1793;-38
2022/05/03 01:00:24;;;;;;;;;;;;;;;18.03;67.34;100837.56;7406872;19;1730;-38
2022/05/03 01:03:09;;;;;;;;;;;;;;;18.01;67.26;100834.16;7403704;19;1992;-37
2022/05/03 01:05:56;;;;;;;;;;;;;;;17.98;67.11;100821.88;7404976;19;1792;-38
2022/05/03 01:08:34;;;;;;;;;;;;;;;17.99;67.61;100825.41;7406723;19;1436;-37
2022/05/03 01:11:15;;;;;;;;;;;;;;;18.02;67.76;100836.69;7403481;19;1881;-38
2022/05/03 01:13:47;;;;;;;;;;;;;;;17.99;67.68;100836.13;7405082;19;1732;-38
2022/05/03 01:16:23;;;;;;;;;;;;;;;18.00;67.09;100837.81;7405816;19;1676;-37
2022/05/03 01:18:56;;;;;;;;;;;;;;;18.00;67.41;100827.09;7406436;19;1623;-39
2022/05/03 01:21:39;;;;;;;;;;;;;;;17.97;67.27;100822.03;7406196;19;1671;-37
2022/05/03 01:24:22;;;;;;;;;;;;;;;17.99;67.54;100825.41;7406486;19;1906;-38
2022/05/03 01:27:18;;;;;;;;;;;;;;;17.97;67.23;100827.38;7403613;19;1783;-38
2022/05/03 01:29:53;;;;;;;;;;;;;;;17.98;67.42;100829.06;7403893;19;1988;-38
2022/05/03 01:32:22;;;;;;;;;;;;;;;17.98;67.54;100819.19;7404902;19;1913;-38
2022/05/03 01:34:57;;;;;;;;;;;;;;;18.02;67.13;100835.84;7403966;19;1798;-37
2022/05/03 01:38:00;;;;;;;;;;;;;;;17.99;67.15;100820.06;7405916;19;1679;-37
2022/05/03 01:40:36;;;;;;;;;;;;;;;18.10;67.06;100817.31;7404090;19;1831;-38
2022/05/03 01:43:12;;;;;;;;;;;;;;;18.12;66.74;100836.78;7405927;19;1606;-38
2022/05/03 01:46:02;;;;;;;;;;;;;;;18.03;66.49;100829.53;7404418;19;1694;-38
2022/05/03 01:51:28;;;;;;;;;;;;;;;18.01;66.88;100831.50;7402776;19;1877;-38
2022/05/03 01:54:05;;;;;;;;;;;;;;;17.98;67.25;100829.06;7405824;19;1756;-37
2022/05/03 01:56:43;;;;;;;;;;;;;;;17.97;67.75;100827.38;7405010;19;1883;-37
2022/05/03 01:59:38;;;;;;;;;;;;;;;17.97;67.30;100832.72;7405093;19;1789;-38
2022/05/03 02:02:12;;;;;;;;;;;;;;;17.97;67.31;100814.84;7395492;19;3234;-56
2022/05/03 02:04:51;;;;;;;;;;;;;;;17.94;67.51;100816.91;7406173;19;1702;-56
2022/05/03 02:07:26;;;;;;;;;;;;;;;17.96;67.45;100817.63;7407289;19;1444;-56
2022/05/03 02:10:01;;;;;;;;;;;;;;;17.95;67.63;100823.97;7407504;19;1861;-56
2022/05/03 02:12:30;;;;;;;;;;;;;;;17.94;67.32;100811.56;7406435;19;1425;-56
2022/05/03 02:15:01;;;;;;;;;;;;;;;17.94;67.53;100809.72;7405940;19;1349;-56
2022/05/03 02:17:51;;;;;;;;;;;;;;;17.93;67.14;100801.84;7406883;19;1380;-56
2022/05/03 02:20:34;;;;;;;;;;;;;;;17.94;66.91;100816.91;7405475;19;1643;-56
2022/05/03 02:23:07;;;;;;;;;;;;;;;17.93;67.50;100812.56;7407323;19;1550;-56
2022/05/03 02:25:53;;;;;;;;;;;;;;;17.94;67.19;100814.25;7406453;19;1577;-56
2022/05/03 02:28:25;;;;;;;;;;;;;;;17.92;67.17;100808.16;7406181;19;1638;-56
2022/05/03 02:30:54;;;;;;;;;;;;;;;17.93;66.87;100808.06;7406112;19;1845;-56
2022/05/03 02:33:26;;;;;;;;;;;;;;;17.94;67.01;100803.53;7406804;19;1506;-56
2022/05/03 02:35:57;;;;;;;;;;;;;;;17.93;66.77;100807.22;7405169;19;1430;-56
2022/05/03 02:38:33;;;;;;;;;;;;;;;17.92;67.14;100810.84;7404098;19;1329;-56
2022/05/03 02:41:04;;;;;;;;;;;;;;;17.94;66.86;100803.53;7405870;19;1352;-56
2022/05/03 02:43:33;;;;;;;;;;;;;;;17.95;67.21;100813.28;7405577;19;1345;-56
2022/05/03 02:46:10;;;;;;;;;;;;;;;17.96;67.04;100820.31;7404602;19;1320;-56
2022/05/03 02:48:43;;;;;;;;;;;;;;;17.93;67.29;100802.69;7406403;19;1142;-56
2022/05/03 02:51:12;;;;;;;;;;;;;;;17.93;67.12;100804.53;7403975;19;1876;-56
2022/05/03 02:53:45;;;;;;;;;;;;;;;17.92;67.30;100810.84;7404623;19;1356;-56
2022/05/03 02:56:19;;;;;;;;;;;;;;;17.88;67.21;100819.09;7404663;19;1368;-56
2022/05/03 02:58:51;;;;;;;;;;;;;;;17.89;66.66;100812.78;7404999;19;1276;-55
2022/05/03 03:04:07;;;;;;;;;;;;;;;17.92;67.12;100824.22;7405416;19;1234;-58
2022/05/03 03:06:36;;;;;;;;;;;;;;;17.89;66.92;100804.78;7403083;19;1625;-57
2022/05/03 03:09:09;;;;;;;;;;;;;;;17.87;66.98;100813.91;7402826;19;1308;-56
2022/05/03 03:11:43;;;;;;;;;;;;;;;17.86;67.22;100810.34;7403495;19;1856;-56
2022/05/03 03:14:13;;;;;;;;;;;;;;;17.88;66.56;100811.09;7405398;19;1384;-62
2022/05/03 03:16:44;;;;;;;;;;;;;;;17.89;66.55;100826.19;7405159;19;1457;-56
2022/05/03 03:19:22;;;;;;;;;;;;;;;17.88;67.38;100824.47;7404847;19;1460;-56
2022/05/03 03:21:51;;;;;;;;;;;;;;;17.86;66.77;100820.22;7404146;19;1755;-62
2022/05/03 03:24:22;;;;;;;;;;;;;;;17.91;67.21;100825.22;7403031;19;1733;-63
2022/05/03 03:26:52;;;;;;;;;;;;;;;17.87;67.26;100817.44;7404419;19;1426;-56
2022/05/03 03:29:21;;;;;;;;;;;;;;;17.88;67.33;100816.44;7402950;19;1476;-56
2022/05/03 03:31:51;;;;;;;;;;;;;;;17.86;66.76;100805.00;7402938;19;1856;-56
2022/05/03 03:34:21;;;;;;;;;;;;;;;17.88;67.25;100818.25;7404472;19;1351;-56
2022/05/03 03:36:51;;;;;;;;;;;;;;;17.88;66.99;100815.59;7403717;19;1829;-62
2022/05/03 03:39:22;;;;;;;;;;;;;;;17.88;67.34;100813.75;7403522;19;1475;-62
2022/05/03 03:41:50;;;;;;;;;;;;;;;17.86;67.06;100813.03;7403685;19;1173;-62
2022/05/03 03:44:19;;;;;;;;;;;;;;;17.86;67.12;100810.34;7402633;19;1542;-56
2022/05/03 03:46:47;;;;;;;;;;;;;;;17.86;67.10;100826.41;7404318;19;1412;-62
2022/05/03 03:49:15;;;;;;;;;;;;;;;17.86;67.11;100826.41;7409585;19;969;-56
2022/05/03 03:51:44;;;;;;;;;;;;;;;17.85;67.07;100830.09;7409715;19;1846;-62
2022/05/03 03:54:13;;;;;;;;;;;;;;;17.85;66.85;100830.09;7411060;19;1673;-62
2022/05/03 03:56:45;;;;;;;;;;;;;;;17.86;67.29;100842.47;7411450;19;1526;-56
2022/05/03 03:59:15;;;;;;;;;;;;;;;17.87;66.84;100835.31;7410927;19;1481;-62
2022/05/03 04:01:44;;;;;;;;;;;;;;;17.86;67.11;100834.44;7405514;19;1517;-56
2022/05/03 04:04:13;;;;;;;;;;;;;;;17.87;66.96;100843.34;7411563;19;1602;-56
2022/05/03 04:06:41;;;;;;;;;;;;;;;17.86;67.25;100839.78;7410396;19;1622;-56
2022/05/03 04:09:10;;;;;;;;;;;;;;;17.87;67.09;100851.38;7409441;19;1595;-62
2022/05/03 04:11:47;;;;;;;;;;;;;;;17.83;66.85;100844.53;7405473;19;1865;-56
2022/05/03 04:14:16;;;;;;;;;;;;;;;17.86;67.42;100834.44;7409973;19;1420;-56
2022/05/03 04:16:45;;;;;;;;;;;;;;;17.84;66.86;100852.44;7409541;19;1535;-56
2022/05/03 04:19:14;;;;;;;;;;;;;;;17.84;67.17;100859.63;7411879;19;1436;-56
2022/05/03 04:21:42;;;;;;;;;;;;;;;17.86;66.84;100857.66;7411715;19;1582;-62
2022/05/03 04:24:11;;;;;;;;;;;;;;;17.85;67.27;100856.84;7408142;19;1738;-56
2022/05/03 04:26:39;;;;;;;;;;;;;;;17.92;66.83;100856.31;7408262;19;1853;-56
2022/05/03 04:29:10;;;;;;;;;;;;;;;18.01;66.93;100856.41;7409226;19;1527;-69
2022/05/03 04:31:38;;;;;;;;;;;;;;;18.07;67.30;100857.75;7407421;19;1862;-56
2022/05/03 04:34:07;;;;;;;;;;;;;;;18.07;67.93;100852.38;7410784;19;1682;-55
2022/05/03 04:36:36;;;;;;;;;;;;;;;18.49;66.29;100855.97;7405682;19;1295;-62
2022/05/03 04:39:05;;;;;;;;;;;;;;;18.77;65.26;100863.47;7405973;19;1448;-60
2022/05/03 04:41:33;;;;;;;;;;;;;;;19.18;64.95;100851.00;7409074;19;1341;-64
2022/05/03 04:44:02;;;;;;;;;;;;;;;19.51;64.00;100852.56;7409193;19;1713;-59
2022/05/03 04:46:33;;;;;;;;;;;;;;;19.17;63.59;100795.72;7409332;19;1346;-65
2022/05/03 04:49:02;;;;;;;;;;;;;;;19.77;63.15;100846.72;7410332;19;1546;-70
2022/05/03 04:51:31;;;;;;;;;;;;;;;19.95;63.25;100847.72;7409184;19;1861;-72
2022/05/03 04:53:59;;;;;;;;;;;;;;;20.11;63.39;100844.47;7410081;19;1647;-65
2022/05/03 04:56:27;;;;;;;;;;;;;;;20.14;62.87;100846.91;7408653;19;1345;-54
2022/05/03 04:58:58;;;;;;;;;;;;;;;20.24;62.81;100858.47;7410179;19;1326;-57
2022/05/03 05:01:26;;;;;;;;;;;;;;;20.00;63.82;100858.91;7404665;19;1729;-61
2022/05/03 05:03:58;;;;;;;;;;;;;;;20.07;64.09;100851.13;7408712;19;1468;-58
2022/05/03 05:06:26;;;;;;;;;;;;;;;19.92;64.15;100855.22;7405543;19;1367;-54
2022/05/03 05:08:54;;;;;;;;;;;;;;;19.86;64.22;100862.00;7406193;19;1472;-53
2022/05/03 05:11:23;;;;;;;;;;;;;;;19.79;64.24;100860.84;7400847;19;1895;-53
2022/05/03 05:13:51;;;;;;;;;;;;;;;19.81;63.54;100859.72;7403961;19;1336;-58
2022/05/03 05:16:20;;;;;;;;;;;;;;;19.83;63.82;100862.25;7404257;19;1657;-57
2022/05/03 05:18:49;;;;;;;;;;;;;;;19.81;63.31;100869.59;7408251;19;1452;-62
2022/05/03 05:21:20;;;;;;;;;;;;;;;19.74;63.65;100861.25;7405120;19;1781;-62
2022/05/03 05:23:48;;;;;;;;;;;;;;;19.76;63.55;100863.81;7405319;19;1662;-62
2022/05/03 05:26:17;;;;;;;;;;;;;;;19.75;63.58;100862.09;7404923;19;1555;-62
2022/05/03 05:28:45;;;;;;;;;;;;;;;19.80;63.36;100874.13;7408938;19;1914;-61
2022/05/03 05:31:13;;;;;;;;;;;;;;;19.81;63.26;100861.56;7407106;19;1865;-58
2022/05/03 05:33:41;;;;;;;;;;;;;;;19.76;63.09;100878.06;7408661;19;1909;-66
2022/05/03 05:36:10;;;;;;;;;;;;;;;19.78;63.33;100877.94;7408320;19;1607;-69
2022/05/03 05:38:40;;;;;;;;;;;;;;;19.67;63.25;100860.91;7409083;19;1439;-69
2022/05/03 05:41:17;;;;;;;;;;;;;;;19.42;64.03;100872.16;7408200;19;1788;-60
2022/05/03 05:43:47;;;;;;;;;;;;;;;19.19;64.77;100872.34;7406951;19;1625;-57
2022/05/03 05:46:16;;;;;;;;;;;;;;;19.12;64.55;100878.34;7407890;19;1708;-64
2022/05/03 05:48:45;;;;;;;;;;;;;;;19.03;65.14;100871.97;7408084;19;1795;-57
2022/05/03 05:51:14;;;;;;;;;;;;;;;18.95;65.36;100878.00;7407302;19;1853;-56
2022/05/03 05:53:43;;;;;;;;;;;;;;;18.86;65.62;100876.97;7407313;19;1594;-65
2022/05/03 05:56:11;;;;;;;;;;;;;;;18.83;65.53;100884.41;7407131;19;1456;-66
2022/05/03 05:58:40;;;;;;;;;;;;;;;18.85;64.99;100885.97;7407387;19;1705;-58
2022/05/03 06:01:08;;;;;;;;;;;;;;;18.82;64.97;100891.63;7404211;19;1757;-55
2022/05/03 06:03:40;;;;;;;;;;;;;;;18.77;65.56;100885.75;7407859;19;1351;-69
2022/05/03 06:06:08;;;;;;;;;;;;;;;18.68;65.62;100897.25;7407741;19;1463;-59
2022/05/03 06:08:37;;;;;;;;;;;;;;;18.66;65.90;100894.72;7406886;19;1446;-63
2022/05/03 06:11:08;;;;;;;;;;;;;;;18.65;65.58;100901.03;7404527;19;1857;-64
2022/05/03 06:13:37;;;;;;;;;;;;;;;18.67;65.83;100890.19;7405261;19;1441;-63
2022/05/03 06:16:11;;;;;;;;;;;;;;;18.62;66.28;100901.31;7405216;19;1743;-56
2022/05/03 06:18:40;;;;;;;;;;;;;;;18.59;66.23;100898.88;7407547;19;1447;-66
2022/05/03 06:21:09;;;;;;;;;;;;;;;18.55;66.41;100892.09;7406030;19;1651;-66
2022/05/03 06:23:37;;;;;;;;;;;;;;;18.56;66.09;100900.97;7406202;19;1693;-66
2022/05/03 06:26:09;;;;;;;;;;;;;;;18.52;66.58;100896.84;7406370;19;1393;-58
2022/05/03 06:28:39;;;;;;;;;;;;;;;18.54;66.19;100894.88;7406330;19;1483;-66
2022/05/03 06:31:08;;;;;;;;;;;;;;;18.64;66.26;100893.13;7404334;19;1844;-62
2022/05/03 06:33:36;;;;;;;;;;;;;;;18.71;66.13;100899.66;7407826;19;1585;-65
2022/05/03 06:36:05;;;;;;;;;;;;;;;18.28;63.94;100896.13;7406804;19;1540;-66
2022/05/03 06:38:33;;;;;;;;;;;;;;;18.35;64.75;100911.66;7406594;19;1767;-57
2022/05/03 06:41:01;;;;;;;;;;;;;;;18.34;64.42;100896.56;7406218;19;1575;-57
2022/05/03 06:43:32;;;;;;;;;;;;;;;18.36;66.06;100903.47;7407131;19;1616;-65
2022/05/03 06:46:01;;;;;;;;;;;;;;;18.36;65.57;100905.31;7406400;19;1520;-57
2022/05/03 06:48:29;;;;;;;;;;;;;;;18.35;66.18;100906.31;7405387;19;1787;-65
2022/05/03 06:50:57;;;;;;;;;;;;;;;18.34;65.94;100907.28;7405944;19;1623;-57
2022/05/03 06:53:26;;;;;;;;;;;;;;;18.34;66.55;100915.31;7403631;19;1847;-62
2022/05/03 06:55:54;;;;;;;;;;;;;;;18.31;66.58;100910.22;7406109;19;1788;-64
2022/05/03 06:58:22;;;;;;;;;;;;;;;18.31;66.36;100921.78;7405557;19;1595;-65
2022/05/03 07:00:56;;;;;;;;;;;;;;;18.30;66.71;100912.03;7403780;19;1555;-66
2022/05/03 07:03:24;;;;;;;;;;;;;;;18.29;66.40;100913.84;7407000;19;1009;-64
2022/05/03 07:05:52;;;;;;;;;;;;;;;18.29;66.14;100913.84;7405241;19;1650;-57
2022/05/03 07:08:20;;;;;;;;;;;;;;;18.28;66.68;100911.31;7403950;19;1630;-66
2022/05/03 07:10:49;;;;;;;;;;;;;;;18.30;66.77;100920.06;7405334;19;1443;-66
2022/05/03 07:13:23;;;;;;;;;;;;;;;18.30;66.68;100904.00;7404630;19;1855;-58
2022/05/03 07:15:51;;;;;;;;;;;;;;;18.30;66.77;100920.06;7404728;19;1631;-57
2022/05/03 07:23:44;;;;;;;;;;;;;;;18.27;66.75;100905.09;7404510;19;1698;-57
2022/05/03 07:26:12;;;;;;;;;;;;;;;18.27;66.81;100913.13;7404442;19;1632;-57
2022/05/03 07:28:40;;;;;;;;;;;;;;;18.27;67.01;100910.47;7405108;19;1564;-66
2022/05/03 07:31:08;;;;;;;;;;;;;;;18.26;66.90;100911.44;7403339;19;1751;-57
2022/05/03 07:33:39;;;;;;;;;;;;;;;18.26;66.99;100915.94;7403749;19;1883;-65
2022/05/03 07:36:08;;;;;;;;;;;;;;;18.25;66.48;100922.28;7405678;19;1562;-66
2022/05/03 07:38:36;;;;;;;;;;;;;;;18.25;66.93;100911.56;7404924;19;1689;-57
2022/05/03 07:41:05;;;;;;;;;;;;;;;18.28;66.47;100919.34;7404317;19;1710;-66
2022/05/03 07:43:33;;;;;;;;;;;;;;;18.25;66.66;100920.44;7404805;19;1515;-57
2022/05/03 07:46:02;;;;;;;;;;;;;;;18.27;66.51;100926.53;7404760;19;1557;-57
2022/05/03 07:48:30;;;;;;;;;;;;;;;18.27;66.43;100929.19;7404811;19;1659;-57
2022/05/03 07:51:01;;;;;;;;;;;;;;;18.30;66.75;100936.13;7403060;19;1546;-57
2022/05/03 07:53:30;;;;;;;;;;;;;;;18.29;66.34;100929.91;7402509;19;1846;-66
2022/05/03 07:55:58;;;;;;;;;;;;;;;18.29;66.81;100940.63;7404115;19;1717;-57
2022/05/03 07:58:26;;;;;;;;;;;;;;;18.31;66.36;100928.97;7403946;19;1674;-57
2022/05/03 08:00:54;;;;;;;;;;;;;;;18.31;66.62;100929.81;7402855;19;1575;-57
2022/05/03 08:03:23;;;;;;;;;;;;;;;18.33;66.37;100919.81;7404706;19;954;-58
2022/05/03 08:05:51;;;;;;;;;;;;;;;18.34;66.42;100936.72;7403776;19;1701;-67
2022/05/03 08:08:22;;;;;;;;;;;;;;;18.35;66.30;100938.44;7402238;19;1567;-57
2022/05/03 08:10:50;;;;;;;;;;;;;;;18.34;66.13;100932.22;7404155;19;1567;-57
2022/05/03 08:13:18;;;;;;;;;;;;;;;18.34;66.40;100942.91;7403451;19;1859;-57
2022/05/03 08:15:47;;;;;;;;;;;;;;;18.37;66.00;100931.97;7403856;19;1690;-66
2022/05/03 08:18:15;;;;;;;;;;;;;;;18.36;66.09;100927.56;7403711;19;1768;-57
2022/05/03 08:20:44;;;;;;;;;;;;;;;18.38;66.14;100924.78;7402634;19;1604;-65
2022/05/03 08:23:12;;;;;;;;;;;;;;;18.38;66.11;100932.81;7402828;19;1641;-57
2022/05/03 08:25:43;;;;;;;;;;;;;;;18.36;66.37;100935.59;7403738;19;1575;-66
2022/05/03 08:28:11;;;;;;;;;;;;;;;18.39;66.46;100939.88;7403801;19;1652;-57
2022/05/03 08:30:39;;;;;;;;;;;;;;;18.37;66.46;100936.47;7402587;19;1630;-66
2022/05/03 08:33:07;;;;;;;;;;;;;;;18.37;66.11;100931.13;7403101;19;1843;-62
2022/05/03 08:35:36;;;;;;;;;;;;;;;18.38;66.42;100941.72;7404704;19;1721;-57
2022/05/03 08:43:28;;;;;;;;;;;;;;;18.37;66.07;100931.13;7410777;19;1636;-57
2022/05/03 08:45:57;;;;;;;;;;;;;;;18.36;66.41;100946.31;7410534;19;1638;-57
2022/05/03 08:48:29;;;;;;;;;;;;;;;18.37;66.44;100940.00;7410083;19;1741;-57
2022/05/03 08:50:58;;;;;;;;;;;;;;;18.38;65.89;100927.44;7409304;19;1602;-57
2022/05/03 08:53:26;;;;;;;;;;;;;;;18.25;66.04;100932.97;7407265;19;1855;-68
2022/05/03 08:55:57;;;;;;;;;;;;;;;18.40;65.71;100931.72;7408412;19;1661;-57
2022/05/03 08:58:25;;;;;;;;;;;;;;;18.44;65.82;100921.59;7407730;19;1664;-68
2022/05/03 09:00:54;;;;;;;;;;;;;;;18.49;65.55;100928.25;7408394;19;1641;-65
2022/05/03 09:03:22;;;;;;;;;;;;;;;18.49;65.44;100924.75;7410890;19;968;-63
2022/05/03 09:05:52;;;;;;;;;;;;;;;18.54;65.55;100927.88;7408997;19;1646;-72
2022/05/03 09:08:23;;;;;;;;;;;;;;;18.50;66.14;100929.09;7409036;19;1714;-57
2022/05/03 09:10:52;;;;;;;;;;;;;;;18.51;65.98;100927.28;7409258;19;1416;-62
2022/05/03 09:13:24;;;;;;;;;;;;;;;18.50;65.76;100931.78;7407024;19;1846;-61
2022/05/03 09:15:55;;;;;;;;;;;;;;;18.53;65.63;100936.91;7408573;19;1706;-62
2022/05/03 09:18:24;;;;;;;;;;;;;;;18.49;65.84;100928.25;7409959;19;1594;-56
2022/05/03 09:26:15;;;;;;;;;;;;;;;18.52;65.86;100932.50;7409714;19;1471;-66
2022/05/03 09:28:50;;;;;;;;;;;;;;;18.54;65.96;100929.69;7408346;19;1516;-62
2022/05/03 09:31:33;;;;;;;;;;;;;;;18.52;66.28;100929.81;7407404;19;1656;-62
2022/05/03 09:34:02;;;;;;;;;;;;;;;18.47;66.37;100924.03;7404268;19;1914;-59
2022/05/03 09:36:30;;;;;;;;;;;;;;;18.44;66.01;100921.59;7408687;19;1371;-62
2022/05/03 09:38:59;;;;;;;;;;;;;;;18.42;66.46;100919.06;7408280;19;1516;-62
2022/05/03 09:41:27;;;;;;;;;;;;;;;18.41;66.51;100922.69;7408567;19;1375;-62
2022/05/03 09:44:11;;;;;;;;;;;;;;;18.39;66.67;100919.31;7408513;19;1689;-60
2022/05/03 09:46:52;;;;;;;;;;;;;;;18.42;66.53;100920.88;7407821;19;1513;-62
2022/05/03 09:49:21;;;;;;;;;;;;;;;18.39;66.60;100913.94;7405425;19;1752;-59
2022/05/03 09:51:51;;;;;;;;;;;;;;;18.36;66.15;100913.34;7407346;19;1535;-59
2022/05/03 09:54:20;;;;;;;;;;;;;;;18.36;66.14;100919.53;7405235;19;1827;-59
2022/05/03 09:56:50;;;;;;;;;;;;;;;18.35;66.54;100927.72;7407466;19;1223;-62
2022/05/03 09:59:22;;;;;;;;;;;;;;;18.36;66.63;100927.56;7408519;19;1333;-62
2022/05/03 10:01:50;;;;;;;;;;;;;;;18.35;66.30;100895.59;7406228;19;1713;-59
2022/05/03 10:04:19;;;;;;;;;;;;;;;18.35;66.25;100919.69;7407633;19;1652;-62
2022/05/03 10:06:47;;;;;;;;;;;;;;;18.37;66.14;100905.19;7408247;19;1733;-62
2022/05/03 10:09:16;;;;;;;;;;;;;;;18.36;66.48;100913.34;7406582;19;1449;-59
2022/05/03 10:11:46;;;;;;;;;;;;;;;18.35;66.45;100914.34;7407677;19;1534;-62
2022/05/03 10:14:15;;;;;;;;;;;;;;;18.35;66.66;100922.38;7406081;19;1847;-59
2022/05/03 10:22:08;;;;;;;;;;;;;;;18.33;66.76;100909.09;7408129;19;1334;-59
2022/05/03 10:24:51;;;;;;;;;;;;;;;18.32;66.23;100894.00;7407658;19;1681;-61
2022/05/03 10:27:24;;;;;;;;;;;;;;;18.35;66.17;100917.84;7407654;19;1735;-59
2022/05/03 10:30:07;;;;;;;;;;;;;;;18.35;66.61;100901.78;7406160;19;1722;-62
2022/05/03 10:32:38;;;;;;;;;;;;;;;18.36;66.56;100905.31;7407004;19;1869;-59
2022/05/03 10:35:27;;;;;;;;;;;;;;;18.35;66.15;100892.91;7404924;19;1792;-61
2022/05/03 10:38:06;;;;;;;;;;;;;;;18.36;66.14;100905.31;7406239;19;2242;-59
2022/05/03 10:40:39;;;;;;;;;;;;;;;18.34;66.11;100904.59;7407056;19;1326;-63
2022/05/03 10:43:09;;;;;;;;;;;;;;;18.33;66.15;100884.16;7406426;19;1233;-62
2022/05/03 10:45:50;;;;;;;;;;;;;;;18.33;66.19;100881.50;7405718;19;1339;-62
2022/05/03 10:48:33;;;;;;;;;;;;;;;18.35;66.46;100879.53;7406899;19;1400;-59
2022/05/03 10:51:02;;;;;;;;;;;;;;;18.35;66.67;100884.88;7407028;19;1527;-59
2022/05/03 10:53:32;;;;;;;;;;;;;;;18.35;66.16;100882.22;7404857;19;1864;-59
2022/05/03 10:56:16;;;;;;;;;;;;;;;18.33;66.15;100889.53;7404942;19;1531;-59
2022/05/03 10:58:45;;;;;;;;;;;;;;;18.34;66.07;100889.38;7403818;19;1275;-62
2022/05/03 11:01:16;;;;;;;;;;;;;;;18.34;66.22;100883.19;7404083;19;1451;-62
2022/05/03 11:04:00;;;;;;;;;;;;;;;18.38;66.09;100879.25;7406951;19;1634;-59
2022/05/03 11:06:44;;;;;;;;;;;;;;;18.35;66.21;100888.41;7405451;19;1815;-59
2022/05/03 11:09:16;;;;;;;;;;;;;;;18.34;66.27;100873.31;7404526;19;1643;-60
2022/05/03 11:11:57;;;;;;;;;;;;;;;18.36;66.34;100881.22;7405236;19;1327;-59
2022/05/03 11:14:41;;;;;;;;;;;;;;;18.36;66.42;100895.44;7404879;19;1865;-59
2022/05/03 11:17:10;;;;;;;;;;;;;;;18.31;66.71;100876.25;7405413;19;1396;-63
2022/05/03 11:19:39;;;;;;;;;;;;;;;18.33;66.58;100876.13;7405540;19;1726;-63
2022/05/03 11:22:11;;;;;;;;;;;;;;;18.31;66.33;100870.91;7405643;19;1404;-62
2022/05/03 11:24:45;;;;;;;;;;;;;;;18.31;66.35;100864.72;7405123;19;1493;-63
2022/05/03 11:27:16;;;;;;;;;;;;;;;18.32;66.81;100872.59;7404273;19;1747;-59
2022/05/03 11:29:45;;;;;;;;;;;;;;;18.33;66.53;100868.09;7404007;19;1487;-62
2022/05/03 11:32:14;;;;;;;;;;;;;;;18.42;66.41;100865.50;7404408;19;1435;-55
2022/05/03 11:34:43;;;;;;;;;;;;;;;18.43;66.38;100872.53;7403344;19;1851;-61
2022/05/03 11:37:11;;;;;;;;;;;;;;;18.48;66.75;100861.44;7405114;19;1428;-55
2022/05/03 11:39:40;;;;;;;;;;;;;;;18.49;66.05;100871.19;7404754;19;1732;-61
2022/05/03 11:42:12;;;;;;;;;;;;;;;19.11;64.51;100861.44;7403965;19;1316;-55
2022/05/03 11:44:45;;;;;;;;;;;;;;;19.65;63.07;100848.63;7402992;19;1353;-56
2022/05/03 11:47:13;;;;;;;;;;;;;;;19.95;62.43;100854.94;7402862;19;1625;-56
2022/05/03 11:49:42;;;;;;;;;;;;;;;19.63;63.48;100855.97;7404393;19;1467;-62
2022/05/03 11:57:36;;;;;;;;;;;;;;;18.94;66.01;100854.00;7404877;19;1446;-59
2022/05/03 12:00:06;;;;;;;;;;;;;;;18.89;65.35;100846.38;7404026;19;1580;-54
2022/05/03 12:02:36;;;;;;;;;;;;;;;18.93;65.59;100861.19;7401933;19;1563;-60
2022/05/03 12:05:16;;;;;;;;;;;;;;;19.71;63.89;100858.84;7402921;19;1601;-61
2022/05/03 12:07:45;;;;;;;;;;;;;;;19.68;63.14;100857.25;7402852;19;1215;-54
2022/05/03 12:10:19;;;;;;;;;;;;;;;19.83;63.10;100860.41;7404760;19;1357;-56
2022/05/03 12:12:51;;;;;;;;;;;;;;;20.04;62.76;100852.25;7410220;19;1858;-62
2022/05/03 12:15:22;;;;;;;;;;;;;;;19.99;62.46;100848.28;7410869;19;1309;-56
2022/05/03 12:17:54;;;;;;;;;;;;;;;19.55;64.17;100855.81;7412762;19;958;-56
2022/05/03 12:20:22;;;;;;;;;;;;;;;19.28;64.94;100846.56;7409620;19;1773;-61
2022/05/03 12:23:05;;;;;;;;;;;;;;;19.11;65.01;100850.72;7410434;19;1561;-62
2022/05/03 12:25:34;;;;;;;;;;;;;;;19.02;65.38;100857.75;7410287;19;1671;-56
2022/05/03 12:28:07;;;;;;;;;;;;;;;18.95;65.75;100861.91;7411610;19;1618;-56
2022/05/03 12:30:36;;;;;;;;;;;;;;;18.91;65.71;100876.56;7410509;19;1574;-61
2022/05/03 12:33:05;;;;;;;;;;;;;;;18.88;66.07;100895.59;7411501;19;1857;-56
2022/05/03 12:35:33;;;;;;;;;;;;;;;18.81;65.74;100886.38;7410577;19;1781;-62
2022/05/03 12:38:09;;;;;;;;;;;;;;;18.78;65.52;100878.56;7411136;19;1534;-56
2022/05/03 12:40:45;;;;;;;;;;;;;;;18.68;65.89;100890.06;7410303;19;1591;-56
2022/05/03 12:43:21;;;;;;;;;;;;;;;18.71;65.94;100885.44;7410660;19;1607;-56
2022/05/03 12:46:08;;;;;;;;;;;;;;;19.28;64.23;100894.81;7411004;19;1634;-56
2022/05/03 12:48:37;;;;;;;;;;;;;;;19.31;63.95;100897.22;7409283;19;1634;-56
2022/05/03 12:51:06;;;;;;;;;;;;;;;19.13;64.35;100901.50;7410107;19;1675;-56
2022/05/03 12:53:35;;;;;;;;;;;;;;;18.96;64.87;100895.78;7408247;19;1861;-62
2022/05/03 12:58:49;;;;;;;;;;;;;;;18.85;65.74;100898.53;7406734;19;1455;-56
2022/05/03 13:01:17;;;;;;;;;;;;;;;18.78;65.82;100882.09;7408165;19;1551;-62
2022/05/03 13:03:47;;;;;;;;;;;;;;;18.91;65.72;100894.47;7410546;19;943;-62
2022/05/03 13:06:17;;;;;;;;;;;;;;;19.39;63.77;100878.63;7409319;19;1701;-56
2022/05/03 13:08:45;;;;;;;;;;;;;;;19.45;63.67;100891.47;7408573;19;1288;-56
2022/05/03 13:11:15;;;;;;;;;;;;;;;19.50;63.72;100884.88;7408625;19;1423;-56
2022/05/03 13:13:43;;;;;;;;;;;;;;;19.21;64.43;100872.19;7407643;19;1851;-56
2022/05/03 13:16:14;;;;;;;;;;;;;;;19.04;65.08;100871.84;7409478;19;1542;-55
2022/05/03 13:18:44;;;;;;;;;;;;;;;18.97;65.30;100862.63;7409751;19;1376;-61
2022/05/03 13:21:12;;;;;;;;;;;;;;;18.91;64.89;100875.72;7406873;19;1800;-61
2022/05/03 13:23:40;;;;;;;;;;;;;;;18.82;65.61;100861.28;7408530;19;1783;-61
2022/05/03 13:26:09;;;;;;;;;;;;;;;18.79;65.59;100861.53;7409142;19;1227;-55
2022/05/03 13:28:37;;;;;;;;;;;;;;;18.77;65.63;100868.84;7409258;19;1651;-61
2022/05/03 13:31:06;;;;;;;;;;;;;;;18.76;65.77;100867.13;7406678;19;1764;-56
2022/05/03 13:33:37;;;;;;;;;;;;;;;18.71;65.36;100869.38;7409271;19;1843;-61
2022/05/03 13:41:27;;;;;;;;;;;;;;;18.66;65.98;100867.94;7407870;19;1677;-59
2022/05/03 13:43:56;;;;;;;;;;;;;;;18.77;65.69;100869.69;7407236;19;1569;-62
2022/05/03 13:46:24;;;;;;;;;;;;;;;19.27;64.00;100867.16;7407443;19;1649;-61
2022/05/03 13:48:55;;;;;;;;;;;;;;;19.33;63.82;100879.16;7409241;19;1017;-56
2022/05/03 13:51:23;;;;;;;;;;;;;;;19.37;63.56;100885.94;7408788;19;1444;-61
2022/05/03 13:53:51;;;;;;;;;;;;;;;19.15;64.47;100881.63;7407197;19;1867;-56
2022/05/03 13:56:20;;;;;;;;;;;;;;;19.21;64.21;100882.94;7407006;19;1365;-56